Terminal Aerodrome Forecast
Issued by NWS

Home | Current Version | Previous Version | Text Only | Print | Product List | Glossary On
Versions: 1 2 3 4 5 6 7 8 9 10 11 12 13 14 15 16 17 18 19 20 21 22 23
849
FTUS43 KDLH 200759 AAB
TAFBRD
TAF AMD
KBRD 200759Z 2008/2106 16010KT P6SM VCTS SCT015CB BKN060
      WS015/16050KT
      TEMPO 2008/2009 6SM -SHRA BR SCT015 OVC035
     FM201000 17010KT 6SM -SHRA BR BKN020 OVC050
     FM201200 19007KT 6SM BR BKN010
     FM201400 25010KT P6SM BKN040
     FM201800 26011KT P6SM SCT040
     FM210000 23003KT P6SM SKC=

USA.gov is the U.S. government's official web portal to all federal, state and local government web resources and services.